< < Back
Terminal Aerodrome Forecast


Current Version              Previous Versions:   1  2  3  4  5  6  7  8  9  

Terminal Aerodrome Forecast

680
FTUS42 KJAX 272300
TAFJAX
TAF
KJAX 272340Z 2800/2824 09005KT P6SM SKC
     FM280200 VRB03KT P6SM SKC
     FM281600 04006KT P6SM FEW040
     FM282000 10008KT P6SM SCT050=



Latest METAR

730
SAUS80 KWBC 280500 CCA
MTRJAX
METAR KJAX 280456Z 00000KT 10SM CLR 19/19 A3001 RMK AO2 SLP164 T01940189
403110189


USA.gov is the U.S. government's official web portal to all federal, state and local government web resources and services.